createdAt,value
2019-01-19T00:02:14.109Z,12.90
2019-01-19T00:05:26.421Z,13.00
2019-01-19T00:08:42.923Z,13.00
2019-01-19T00:11:49.681Z,12.90
2019-01-19T00:14:32.619Z,13.00
2019-01-19T00:17:32.842Z,13.00
2019-01-19T00:20:36.405Z,13.00
2019-01-19T00:23:42.127Z,13.00
2019-01-19T00:26:40.812Z,12.90
2019-01-19T00:29:28.305Z,12.80
2019-01-19T00:32:21.180Z,12.90
2019-01-19T00:35:50.252Z,12.90
2019-01-19T00:38:54.696Z,12.90
2019-01-19T00:41:40.884Z,12.90
2019-01-19T00:44:27.521Z,12.80
2019-01-19T00:47:09.706Z,12.80
2019-01-19T00:49:56.329Z,12.70
2019-01-19T00:52:42.157Z,12.70
2019-01-19T00:55:44.596Z,12.70
2019-01-19T00:58:49.952Z,12.70
2019-01-19T01:01:57.839Z,12.70
2019-01-19T01:04:41.582Z,12.70
2019-01-19T01:07:38.737Z,12.80
2019-01-19T01:10:45.611Z,12.70
2019-01-19T01:13:46.307Z,12.80
2019-01-19T01:16:48.317Z,12.80
2019-01-19T01:19:40.793Z,12.70
2019-01-19T01:22:42.186Z,12.70
2019-01-19T01:26:03.939Z,12.70
2019-01-19T01:29:09.993Z,12.70
2019-01-19T01:32:06.235Z,12.70
2019-01-19T01:35:32.816Z,12.70
2019-01-19T01:38:21.726Z,12.70
2019-01-19T01:41:26.032Z,12.70
2019-01-19T01:44:15.843Z,12.70
2019-01-19T01:47:43.099Z,12.60
2019-01-19T01:50:38.684Z,12.60
2019-01-19T01:53:37.977Z,12.60
2019-01-19T01:56:12.244Z,12.70
2019-01-19T01:59:00.677Z,12.60
2019-01-19T02:02:17.033Z,12.60
2019-01-19T02:05:11.149Z,12.60
2019-01-19T02:08:15.875Z,12.60
2019-01-19T02:11:28.706Z,12.60
2019-01-19T02:14:39.290Z,13.10
2019-01-19T02:18:13.959Z,12.60
2019-01-19T02:21:07.372Z,12.40
2019-01-19T02:24:13.551Z,12.60
2019-01-19T02:27:36.057Z,12.50
2019-01-19T02:30:19.546Z,12.50
2019-01-19T02:33:31.690Z,12.50
2019-01-19T02:36:30.445Z,12.50
2019-01-19T02:39:46.464Z,12.50
2019-01-19T02:42:54.795Z,12.50
2019-01-19T02:46:08.061Z,12.50
2019-01-19T02:49:13.233Z,12.60
2019-01-19T02:52:26.773Z,12.60
2019-01-19T02:55:30.368Z,12.50
2019-01-19T02:58:41.043Z,12.50
2019-01-19T03:01:57.000Z,12.50
2019-01-19T03:04:54.207Z,12.40
2019-01-19T03:07:54.690Z,12.50
2019-01-19T03:11:01.581Z,12.40
2019-01-19T03:14:33.214Z,12.60
2019-01-19T03:17:55.864Z,12.50
2019-01-19T03:20:45.989Z,12.60
2019-01-19T03:23:53.209Z,12.50
2019-01-19T03:26:58.892Z,12.40
2019-01-19T03:30:03.420Z,12.40
2019-01-19T03:32:58.213Z,12.40
2019-01-19T03:36:04.150Z,12.40
2019-01-19T03:39:09.089Z,12.50
2019-01-19T03:42:27.195Z,12.50
2019-01-19T03:45:35.660Z,12.40
2019-01-19T03:48:30.542Z,12.40
2019-01-19T03:51:24.732Z,12.50
2019-01-19T03:54:13.265Z,13.00
2019-01-19T03:57:06.761Z,12.50
2019-01-19T04:00:09.136Z,12.50
2019-01-19T04:03:18.729Z,12.60
2019-01-19T04:06:19.612Z,12.70
2019-01-19T04:09:27.431Z,12.60
2019-01-19T04:12:33.849Z,12.60
2019-01-19T04:15:43.420Z,12.60
2019-01-19T04:18:27.580Z,12.50
2019-01-19T04:21:59.517Z,12.60
2019-01-19T04:24:34.775Z,12.60
2019-01-19T04:27:04.625Z,12.60
2019-01-19T04:29:34.476Z,12.60
2019-01-19T04:32:04.174Z,12.60
2019-01-19T04:34:34.197Z,12.50
2019-01-19T04:37:03.808Z,12.60
2019-01-19T04:39:35.364Z,12.50
2019-01-19T04:42:05.951Z,12.50
2019-01-19T04:44:35.569Z,12.50
2019-01-19T04:47:05.401Z,12.50
2019-01-19T04:49:35.238Z,12.10
2019-01-19T04:52:05.035Z,12.60
2019-01-19T04:54:34.599Z,12.60
2019-01-19T04:57:04.418Z,12.50
2019-01-19T04:59:34.130Z,12.50
2019-01-19T05:02:03.959Z,12.50
2019-01-19T05:04:33.684Z,12.10
2019-01-19T05:07:03.427Z,12.50
2019-01-19T05:09:33.251Z,12.40
2019-01-19T05:12:03.074Z,12.40
2019-01-19T05:14:32.796Z,12.50
2019-01-19T05:17:02.707Z,12.50
2019-01-19T05:19:32.341Z,12.40
2019-01-19T05:22:02.174Z,12.40
2019-01-19T05:24:32.230Z,12.40
2019-01-19T05:27:02.143Z,12.40
2019-01-19T05:29:31.871Z,12.50
2019-01-19T05:32:01.514Z,12.40
2019-01-19T05:34:31.429Z,12.40
2019-01-19T05:37:01.158Z,12.40
2019-01-19T05:39:30.688Z,12.30
2019-01-19T05:42:00.639Z,12.30
2019-01-19T05:44:30.422Z,12.40
2019-01-19T05:47:00.285Z,12.30
2019-01-19T05:49:30.188Z,12.30
2019-01-19T05:51:59.833Z,12.40
2019-01-19T05:54:29.756Z,12.30
2019-01-19T05:56:59.711Z,12.40
2019-01-19T05:59:29.522Z,12.30
2019-01-19T06:01:59.678Z,12.40
2019-01-19T06:04:29.588Z,12.40
2019-01-19T06:06:59.547Z,12.50
2019-01-19T06:09:29.141Z,12.20
2019-01-19T06:11:58.992Z,13.00
2019-01-19T06:14:28.819Z,12.40
2019-01-19T06:16:58.555Z,12.30
2019-01-19T06:19:28.853Z,12.30
2019-01-19T06:22:00.454Z,12.20
2019-01-19T06:24:30.264Z,12.20
2019-01-19T06:27:00.015Z,12.20
2019-01-19T06:29:29.836Z,12.50
2019-01-19T06:31:59.777Z,12.30
2019-01-19T06:34:29.691Z,12.50
2019-01-19T06:36:59.646Z,12.40
2019-01-19T06:39:29.454Z,12.30
2019-01-19T06:41:59.293Z,12.40
2019-01-19T06:44:29.113Z,12.70
2019-01-19T06:46:58.953Z,12.60
2019-01-19T06:49:28.973Z,12.70
2019-01-19T06:51:58.911Z,12.60
2019-01-19T06:54:29.465Z,12.50
2019-01-19T06:56:59.196Z,12.30
2019-01-19T06:59:29.008Z,11.80
2019-01-19T07:01:58.748Z,11.80
2019-01-19T07:04:28.566Z,12.00
2019-01-19T07:07:02.606Z,11.90
2019-01-19T07:09:29.955Z,12.10
2019-01-19T07:12:01.303Z,12.10
2019-01-19T07:14:31.043Z,12.50
2019-01-19T07:17:00.779Z,12.00
2019-01-19T07:19:32.085Z,12.10
2019-01-19T07:22:01.766Z,12.10
2019-01-19T07:24:31.596Z,12.20
2019-01-19T07:27:01.529Z,12.70
2019-01-19T07:29:31.347Z,12.30
2019-01-19T07:32:01.304Z,12.20
2019-01-19T07:34:31.004Z,12.20
2019-01-19T07:37:02.001Z,12.20
2019-01-19T07:39:31.788Z,12.20
2019-01-19T07:42:01.564Z,12.20
2019-01-19T07:44:31.359Z,12.10
2019-01-19T07:47:01.797Z,11.20
2019-01-19T07:49:31.742Z,11.80
2019-01-19T07:52:01.464Z,11.10
2019-01-19T07:54:31.288Z,11.70
2019-01-19T07:57:01.113Z,12.30
2019-01-19T07:59:30.968Z,12.20
2019-01-19T08:02:00.665Z,12.20
2019-01-19T08:04:30.606Z,12.20
2019-01-19T08:07:00.425Z,12.30
2019-01-19T08:09:30.179Z,12.40
2019-01-19T08:12:00.110Z,12.60
2019-01-19T08:14:29.829Z,12.90
2019-01-19T08:16:59.556Z,12.90
2019-01-19T08:19:29.402Z,13.00
2019-01-19T08:21:59.205Z,13.00
2019-01-19T08:24:29.042Z,13.00
2019-01-19T08:26:58.772Z,13.00
2019-01-19T08:29:28.505Z,13.20
2019-01-19T08:31:58.326Z,13.50
2019-01-19T08:34:28.262Z,13.50
2019-01-19T08:36:57.963Z,13.80
2019-01-19T08:39:27.905Z,13.70
2019-01-19T08:41:57.547Z,13.60
2019-01-19T08:44:27.264Z,13.50
2019-01-19T08:46:56.979Z,13.60
2019-01-19T08:49:26.539Z,13.60
2019-01-19T08:51:56.275Z,14.00
2019-01-19T08:54:25.990Z,13.60
2019-01-19T08:56:55.687Z,13.80
2019-01-19T08:59:25.627Z,13.60
2019-01-19T09:01:55.447Z,13.70
2019-01-19T09:04:25.396Z,13.70
2019-01-19T09:06:55.110Z,13.50
2019-01-19T09:09:24.856Z,13.70
2019-01-19T09:11:54.797Z,13.80
2019-01-19T09:14:24.726Z,13.60
2019-01-19T09:16:54.530Z,13.70
2019-01-19T09:19:24.273Z,13.40
2019-01-19T09:21:54.072Z,13.60
2019-01-19T09:24:28.391Z,13.80
2019-01-19T09:26:58.153Z,13.90
2019-01-19T09:29:27.990Z,13.70
2019-01-19T09:31:57.716Z,14.20
2019-01-19T09:34:27.553Z,14.00
2019-01-19T09:36:57.369Z,13.80
2019-01-19T09:39:27.196Z,13.80
2019-01-19T09:41:56.826Z,13.80
2019-01-19T09:44:26.649Z,13.70
2019-01-19T09:46:56.690Z,13.80
2019-01-19T09:49:26.626Z,13.80
2019-01-19T09:51:56.565Z,13.70
2019-01-19T09:54:26.491Z,13.60
2019-01-19T09:56:56.299Z,13.60
2019-01-19T09:59:26.105Z,13.60
2019-01-19T10:01:55.908Z,13.50
2019-01-19T10:04:25.700Z,13.50
2019-01-19T10:06:55.456Z,13.90
2019-01-19T10:09:25.476Z,13.70
2019-01-19T10:11:55.399Z,13.60
2019-01-19T10:14:25.320Z,13.70
2019-01-19T10:16:55.028Z,13.70
2019-01-19T10:19:24.898Z,13.70
2019-01-19T10:21:54.711Z,13.80
2019-01-19T10:24:24.746Z,14.10
2019-01-19T10:26:54.666Z,13.90
2019-01-19T10:29:24.614Z,14.00
2019-01-19T10:31:54.455Z,13.90
2019-01-19T10:34:24.276Z,13.90
2019-01-19T10:36:53.883Z,13.90
2019-01-19T10:39:23.723Z,14.00
2019-01-19T10:41:53.545Z,14.00
2019-01-19T10:44:23.468Z,14.10
2019-01-19T10:46:53.314Z,14.00
2019-01-19T10:49:23.140Z,14.70
2019-01-19T10:51:59.224Z,14.60
2019-01-19T10:54:24.332Z,14.60
2019-01-19T10:56:54.157Z,14.90
2019-01-19T10:59:24.114Z,14.60
2019-01-19T11:01:53.909Z,14.40
2019-01-19T11:04:23.662Z,14.70
2019-01-19T11:06:53.587Z,14.80
2019-01-19T11:09:23.398Z,14.80
2019-01-19T11:11:53.130Z,15.10
2019-01-19T11:14:22.972Z,15.30
2019-01-19T11:16:52.905Z,15.10
2019-01-19T11:19:22.717Z,15.20
2019-01-19T11:21:52.649Z,15.20
2019-01-19T11:24:22.392Z,15.20
2019-01-19T11:26:52.302Z,15.10
2019-01-19T11:29:21.945Z,15.20
2019-01-19T11:31:51.677Z,15.20
2019-01-19T11:34:21.602Z,15.10
2019-01-19T11:36:51.516Z,15.10
2019-01-19T11:39:21.461Z,15.00
2019-01-19T11:41:51.402Z,15.80
2019-01-19T11:44:21.216Z,16.20
2019-01-19T11:46:51.468Z,15.30
2019-01-19T11:49:22.081Z,15.60
2019-01-19T11:51:51.842Z,15.70
2019-01-19T11:54:21.881Z,15.30
2019-01-19T11:56:51.708Z,14.00
2019-01-19T11:59:21.399Z,15.20
2019-01-19T12:01:50.953Z,15.40
2019-01-19T12:04:20.766Z,16.10
2019-01-19T12:06:50.569Z,16.20
2019-01-19T12:09:20.429Z,16.10
2019-01-19T12:11:50.168Z,16.30
2019-01-19T12:14:19.787Z,16.10
2019-01-19T12:16:49.421Z,16.40
2019-01-19T12:19:19.128Z,16.30
2019-01-19T12:21:48.980Z,16.60
2019-01-19T12:24:18.690Z,16.60
2019-01-19T12:26:48.427Z,16.60
2019-01-19T12:29:18.352Z,16.80
2019-01-19T12:31:48.189Z,16.70
2019-01-19T12:34:18.121Z,17.40
2019-01-19T12:36:48.069Z,16.60
2019-01-19T12:39:17.752Z,16.90
2019-01-19T12:41:47.617Z,17.00
2019-01-19T12:44:17.133Z,17.00
2019-01-19T12:46:47.863Z,17.00
2019-01-19T12:49:17.702Z,17.10
2019-01-19T12:51:47.549Z,17.20
2019-01-19T12:54:17.352Z,17.10
2019-01-19T12:56:47.199Z,17.40
2019-01-19T12:59:17.021Z,17.30
2019-01-19T13:01:46.455Z,17.60
2019-01-19T13:04:16.360Z,17.70
2019-01-19T13:06:56.279Z,17.70
2019-01-19T13:09:31.895Z,17.70
2019-01-19T13:12:26.214Z,17.70
2019-01-19T13:15:26.228Z,17.60
2019-01-19T13:18:22.033Z,17.80
2019-01-19T13:21:35.310Z,17.60
2019-01-19T13:24:47.664Z,17.90
2019-01-19T13:28:07.238Z,17.60
2019-01-19T13:31:29.942Z,17.90
2019-01-19T13:34:42.782Z,17.70
2019-01-19T13:37:42.600Z,17.60
2019-01-19T13:41:02.162Z,17.80
2019-01-19T13:44:19.573Z,18.00
2019-01-19T13:47:22.981Z,18.20
2019-01-19T13:50:21.881Z,18.40
2019-01-19T13:53:40.522Z,18.50
2019-01-19T13:56:45.874Z,18.50
2019-01-19T13:59:38.590Z,18.80
2019-01-19T14:02:45.094Z,18.80
2019-01-19T14:06:14.090Z,18.90
2019-01-19T14:09:12.275Z,19.00
2019-01-19T14:12:24.495Z,19.00
2019-01-19T14:15:21.911Z,19.10
2019-01-19T14:18:38.616Z,19.20
2019-01-19T14:21:45.781Z,19.30
2019-01-19T14:24:47.449Z,19.40
2019-01-19T14:27:34.610Z,19.40
2019-01-19T14:30:51.083Z,19.40
2019-01-19T14:33:55.488Z,19.40
2019-01-19T14:36:52.591Z,20.70
2019-01-19T14:39:46.932Z,20.70
2019-01-19T14:42:43.772Z,19.90
2019-01-19T14:45:50.466Z,20.40
2019-01-19T14:48:56.976Z,20.10
2019-01-19T14:51:53.572Z,20.10
2019-01-19T14:54:49.611Z,20.70
2019-01-19T14:58:12.242Z,20.50
2019-01-19T15:01:13.121Z,20.50
2019-01-19T15:04:14.222Z,20.70
2019-01-19T15:07:46.044Z,20.70
2019-01-19T15:10:40.362Z,20.30
2019-01-19T15:13:56.358Z,19.80
2019-01-19T15:17:13.136Z,19.90
2019-01-19T15:20:09.393Z,20.00
2019-01-19T15:23:22.916Z,19.80
2019-01-19T15:26:28.488Z,19.90
2019-01-19T15:29:55.035Z,19.70
2019-01-19T15:32:54.296Z,19.80
2019-01-19T15:36:26.455Z,20.00
2019-01-19T15:39:23.304Z,19.40
2019-01-19T15:42:28.793Z,19.20
2019-01-19T15:45:34.907Z,19.30
2019-01-19T15:48:49.168Z,19.00
2019-01-19T15:52:01.654Z,20.10
2019-01-19T15:55:10.685Z,19.30
2019-01-19T15:58:02.252Z,19.30
2019-01-19T16:01:18.678Z,19.20
2019-01-19T16:04:38.406Z,19.30
2019-01-19T16:07:43.205Z,19.20
2019-01-19T16:10:42.826Z,19.00
2019-01-19T16:13:58.157Z,19.10
2019-01-19T16:17:21.057Z,19.90
2019-01-19T16:20:53.249Z,19.50
2019-01-19T16:23:33.643Z,19.60
2019-01-19T16:26:22.483Z,19.60
2019-01-19T16:29:24.174Z,20.90
2019-01-19T16:32:36.910Z,21.10
2019-01-19T16:35:47.157Z,21.30
2019-01-19T16:39:01.932Z,21.10
2019-01-19T16:42:15.869Z,21.60
2019-01-19T16:46:00.061Z,21.50
2019-01-19T16:48:54.684Z,21.70
2019-01-19T16:52:09.533Z,22.30
2019-01-19T16:55:06.784Z,22.80
2019-01-19T16:58:00.292Z,23.30
2019-01-19T17:01:12.571Z,23.80
2019-01-19T17:04:18.213Z,23.50
2019-01-19T17:07:14.030Z,23.70
2019-01-19T17:09:52.475Z,23.60
2019-01-19T17:12:36.293Z,23.80
2019-01-19T17:15:32.146Z,23.90
2019-01-19T17:18:38.878Z,23.30
2019-01-19T17:21:55.210Z,23.20
2019-01-19T17:25:08.134Z,23.30
2019-01-19T17:28:31.268Z,23.20
2019-01-19T17:31:41.844Z,23.80
2019-01-19T17:34:48.908Z,24.00
2019-01-19T17:37:43.628Z,23.80
2019-01-19T17:41:03.298Z,24.10
2019-01-19T17:44:22.040Z,24.00
2019-01-19T17:47:22.726Z,24.10
2019-01-19T17:50:39.218Z,24.20
2019-01-19T17:53:58.854Z,24.50
2019-01-19T17:56:45.762Z,24.30
2019-01-19T17:59:56.129Z,24.60
2019-01-19T18:02:59.211Z,24.80
2019-01-19T18:05:56.810Z,25.50
2019-01-19T18:09:01.702Z,25.10
2019-01-19T18:11:48.524Z,25.10
2019-01-19T18:14:45.586Z,25.20
2019-01-19T18:17:53.281Z,24.80
2019-01-19T18:20:57.957Z,25.40
2019-01-19T18:24:13.057Z,25.50
2019-01-19T18:27:17.272Z,25.20
2019-01-19T18:30:17.925Z,25.60
2019-01-19T18:33:15.925Z,25.90
2019-01-19T18:36:14.877Z,26.10
2019-01-19T18:39:35.272Z,26.20
2019-01-19T18:42:43.138Z,26.20
2019-01-19T18:45:52.407Z,25.80
2019-01-19T18:48:50.178Z,26.10
2019-01-19T18:52:03.806Z,25.70
2019-01-19T18:54:50.938Z,25.50
2019-01-19T18:58:09.877Z,25.70
2019-01-19T19:01:24.345Z,25.20
2019-01-19T19:04:15.237Z,25.40
2019-01-19T19:07:08.403Z,25.00
2019-01-19T19:10:17.638Z,24.80
2019-01-19T19:13:32.162Z,24.50
2019-01-19T19:16:50.774Z,24.10
2019-01-19T19:19:40.716Z,24.10
2019-01-19T19:22:42.589Z,24.30
2019-01-19T19:25:59.380Z,24.20
2019-01-19T19:28:56.082Z,24.10
2019-01-19T19:31:40.415Z,24.10
2019-01-19T19:34:48.818Z,24.10
2019-01-19T19:37:42.977Z,24.50
2019-01-19T19:40:45.134Z,23.80
2019-01-19T19:43:38.547Z,24.30
2019-01-19T19:46:34.786Z,24.00
2019-01-19T19:49:24.146Z,24.30
2019-01-19T19:52:04.229Z,24.10
2019-01-19T19:54:34.736Z,24.10
2019-01-19T19:57:04.395Z,24.00
2019-01-19T19:59:34.390Z,23.90
2019-01-19T20:02:04.251Z,24.10
2019-01-19T20:04:34.045Z,24.20
2019-01-19T20:07:03.788Z,24.40
2019-01-19T20:09:33.634Z,24.60
2019-01-19T20:12:07.506Z,24.80
2019-01-19T20:14:37.292Z,24.10
2019-01-19T20:17:07.415Z,23.80
2019-01-19T20:19:37.238Z,24.00
2019-01-19T20:22:07.069Z,24.50
2019-01-19T20:24:36.943Z,23.80
2019-01-19T20:27:06.712Z,23.90
2019-01-19T20:29:36.450Z,24.10
2019-01-19T20:32:06.494Z,23.80
2019-01-19T20:34:36.119Z,23.90
2019-01-19T20:37:05.918Z,23.70
2019-01-19T20:39:35.358Z,23.80
2019-01-19T20:42:05.313Z,23.70
2019-01-19T20:44:35.109Z,23.50
2019-01-19T20:47:04.948Z,23.80
2019-01-19T20:49:34.883Z,23.40
2019-01-19T20:52:04.704Z,23.70
2019-01-19T20:54:35.850Z,23.70
2019-01-19T20:57:05.413Z,23.80
2019-01-19T20:59:35.340Z,23.70
2019-01-19T21:02:05.142Z,23.60
2019-01-19T21:04:34.870Z,23.60
2019-01-19T21:07:04.818Z,23.60
2019-01-19T21:09:34.448Z,23.30
2019-01-19T21:12:04.171Z,23.50
2019-01-19T21:14:34.081Z,24.20
2019-01-19T21:17:03.932Z,23.20
2019-01-19T21:19:33.884Z,23.30
2019-01-19T21:22:03.683Z,23.30
2019-01-19T21:24:33.416Z,23.20
2019-01-19T21:27:03.345Z,22.90
2019-01-19T21:29:33.171Z,23.20
2019-01-19T21:32:03.069Z,22.80
2019-01-19T21:34:32.648Z,23.20
2019-01-19T21:37:03.263Z,22.60
2019-01-19T21:39:33.003Z,22.70
2019-01-19T21:42:02.930Z,22.80
2019-01-19T21:44:32.765Z,22.60
2019-01-19T21:47:02.586Z,23.20
2019-01-19T21:49:34.229Z,22.50
2019-01-19T21:52:03.797Z,22.70
2019-01-19T21:54:33.731Z,22.50
2019-01-19T21:57:03.448Z,22.50
2019-01-19T21:59:33.376Z,22.60
2019-01-19T22:02:03.308Z,22.40
2019-01-19T22:04:33.042Z,22.60
2019-01-19T22:07:02.959Z,22.10
2019-01-19T22:09:32.496Z,22.40
2019-01-19T22:12:02.223Z,22.30
2019-01-19T22:14:31.766Z,22.20
2019-01-19T22:17:01.547Z,22.10
2019-01-19T22:19:31.090Z,22.10
2019-01-19T22:22:00.700Z,21.90
2019-01-19T22:24:30.349Z,21.90
2019-01-19T22:27:00.485Z,21.90
2019-01-19T22:29:30.211Z,21.90
2019-01-19T22:32:00.143Z,21.90
2019-01-19T22:34:29.974Z,22.00
2019-01-19T22:36:59.591Z,21.70
2019-01-19T22:39:29.434Z,21.70
2019-01-19T22:41:59.350Z,21.80
2019-01-19T22:44:29.277Z,21.60
2019-01-19T22:46:58.898Z,21.40
2019-01-19T22:49:28.728Z,21.30
2019-01-19T22:51:58.560Z,21.20
2019-01-19T22:54:28.609Z,21.20
2019-01-19T22:56:58.421Z,21.10
2019-01-19T22:59:28.275Z,21.00
2019-01-19T23:02:00.836Z,21.30
2019-01-19T23:04:31.794Z,20.90
2019-01-19T23:07:01.746Z,20.90
2019-01-19T23:09:31.474Z,20.90
2019-01-19T23:12:01.299Z,20.80
2019-01-19T23:14:31.921Z,20.80
2019-01-19T23:17:01.668Z,20.80
2019-01-19T23:19:31.313Z,20.80
2019-01-19T23:22:01.340Z,20.80
2019-01-19T23:24:31.277Z,20.70
2019-01-19T23:27:07.627Z,20.60
2019-01-19T23:29:37.382Z,20.50
2019-01-19T23:32:07.290Z,20.50
2019-01-19T23:34:36.930Z,20.50
2019-01-19T23:37:07.571Z,20.30
2019-01-19T23:39:37.397Z,20.30
2019-01-19T23:42:07.212Z,20.40
2019-01-19T23:44:37.233Z,20.10
2019-01-19T23:47:07.193Z,20.10
2019-01-19T23:49:38.130Z,20.70
2019-01-19T23:52:07.889Z,20.00
2019-01-19T23:54:37.823Z,19.90
2019-01-19T23:57:07.756Z,20.00
2019-01-19T23:59:37.603Z,19.70
